createdAt,value
2022-08-16T00:00:44.262Z,28.70
2022-08-16T00:03:14.701Z,28.70
2022-08-16T00:05:48.178Z,28.70
2022-08-16T00:08:35.919Z,28.70
2022-08-16T00:11:15.824Z,28.70
2022-08-16T00:13:53.162Z,28.70
2022-08-16T00:17:05.458Z,28.70
2022-08-16T00:19:14.036Z,28.70
2022-08-16T00:21:43.085Z,28.70
2022-08-16T00:24:12.520Z,28.60
2022-08-16T00:26:44.123Z,28.70
2022-08-16T00:29:16.266Z,28.60
2022-08-16T00:32:01.093Z,28.60
2022-08-16T00:34:52.341Z,28.60
2022-08-16T00:37:24.982Z,28.60
2022-08-16T00:40:33.528Z,28.60
2022-08-16T00:43:16.972Z,28.60
2022-08-16T00:45:58.190Z,28.60
2022-08-16T00:48:43.771Z,28.60
2022-08-16T00:51:16.197Z,28.60
2022-08-16T00:53:45.936Z,28.60
2022-08-16T00:56:56.766Z,28.60
2022-08-16T00:59:09.491Z,28.60
2022-08-16T01:01:38.895Z,28.60
2022-08-16T01:04:30.341Z,28.60
2022-08-16T01:07:02.134Z,28.60
2022-08-16T01:09:33.196Z,28.60
2022-08-16T01:12:03.319Z,28.50
2022-08-16T01:14:33.999Z,28.50
2022-08-16T01:17:04.119Z,28.50
2022-08-16T01:19:43.729Z,28.50
2022-08-16T01:22:50.204Z,28.50
2022-08-16T01:25:13.814Z,28.50
2022-08-16T01:27:46.776Z,28.50
2022-08-16T01:30:20.007Z,28.50
2022-08-16T01:33:01.816Z,28.50
2022-08-16T01:35:37.188Z,28.50
2022-08-16T01:38:20.769Z,28.50
2022-08-16T01:40:56.034Z,28.50
2022-08-16T01:43:27.402Z,28.50
2022-08-16T01:45:58.274Z,28.50
2022-08-16T01:48:30.041Z,28.50
2022-08-16T01:51:09.592Z,28.50
2022-08-16T01:53:45.335Z,28.50
2022-08-16T01:56:31.538Z,28.50
2022-08-16T01:59:02.718Z,28.40
2022-08-16T02:01:33.131Z,28.40
2022-08-16T02:04:10.236Z,28.40
2022-08-16T02:06:46.625Z,28.40
2022-08-16T02:09:18.213Z,28.40
2022-08-16T02:11:54.138Z,28.40
2022-08-16T02:14:27.251Z,28.40
2022-08-16T02:16:58.605Z,28.40
2022-08-16T02:19:58.702Z,28.40
2022-08-16T02:22:33.375Z,28.40
2022-08-16T02:25:14.810Z,28.40
2022-08-16T02:27:50.950Z,28.40
2022-08-16T02:30:37.350Z,28.40
2022-08-16T02:33:12.202Z,28.40
2022-08-16T02:35:54.297Z,28.40
2022-08-16T02:38:26.603Z,28.40
2022-08-16T02:40:55.354Z,28.40
2022-08-16T02:43:26.903Z,28.40
2022-08-16T02:45:58.595Z,28.30
2022-08-16T02:48:30.806Z,28.30
2022-08-16T02:51:07.003Z,28.30
2022-08-16T02:53:45.135Z,28.30
2022-08-16T02:56:15.618Z,28.30
2022-08-16T02:58:47.181Z,28.30
2022-08-16T03:01:24.585Z,28.30
2022-08-16T03:04:40.912Z,28.30
2022-08-16T03:06:57.712Z,28.30
2022-08-16T03:09:44.570Z,28.30
2022-08-16T03:12:16.687Z,28.30
2022-08-16T03:14:48.876Z,28.30
2022-08-16T03:17:20.888Z,28.30
2022-08-16T03:19:59.880Z,28.30
2022-08-16T03:22:36.672Z,28.30
2022-08-16T03:25:13.322Z,28.30
2022-08-16T03:27:53.008Z,28.30
2022-08-16T03:30:27.403Z,28.30
2022-08-16T03:33:07.590Z,28.30
2022-08-16T03:35:44.510Z,28.30
2022-08-16T03:38:32.414Z,28.30
2022-08-16T03:41:24.245Z,28.30
2022-08-16T03:43:57.255Z,28.30
2022-08-16T03:46:47.337Z,28.20
2022-08-16T03:49:23.815Z,28.20
2022-08-16T03:52:06.129Z,28.20
2022-08-16T03:54:36.692Z,28.20
2022-08-16T03:57:06.165Z,28.20
2022-08-16T03:59:40.136Z,28.20
2022-08-16T04:02:22.371Z,28.20
2022-08-16T04:05:00.185Z,28.20
2022-08-16T04:07:33.555Z,28.20
2022-08-16T04:10:35.646Z,28.20
2022-08-16T04:12:54.822Z,28.20
2022-08-16T04:15:30.199Z,28.20
2022-08-16T04:18:20.333Z,28.20
2022-08-16T04:20:51.053Z,28.20
2022-08-16T04:23:23.417Z,28.20
2022-08-16T04:25:54.883Z,28.20
2022-08-16T04:28:52.068Z,28.20
2022-08-16T04:31:13.110Z,28.20
2022-08-16T04:33:51.175Z,28.20
2022-08-16T04:36:22.172Z,28.20
2022-08-16T04:38:50.760Z,28.20
2022-08-16T04:41:20.991Z,28.20
2022-08-16T04:44:01.979Z,28.20
2022-08-16T04:47:03.463Z,28.20
2022-08-16T04:49:44.128Z,28.10
2022-08-16T04:52:35.049Z,28.20
2022-08-16T04:55:06.221Z,28.20
2022-08-16T04:57:34.533Z,28.20
2022-08-16T05:00:32.627Z,28.20
2022-08-16T05:02:55.900Z,28.20
2022-08-16T05:05:32.868Z,28.20
2022-08-16T05:08:29.565Z,28.20
2022-08-16T05:11:00.579Z,28.20
2022-08-16T05:13:41.050Z,28.20
2022-08-16T05:16:19.927Z,28.20
2022-08-16T05:18:56.827Z,28.20
2022-08-16T05:21:38.033Z,28.10
2022-08-16T05:24:09.391Z,28.20
2022-08-16T05:26:40.784Z,28.20
2022-08-16T05:29:14.792Z,28.20
2022-08-16T05:31:55.936Z,28.20
2022-08-16T05:34:25.095Z,28.20
2022-08-16T05:36:57.468Z,28.20
2022-08-16T05:39:40.769Z,28.20
2022-08-16T05:42:09.740Z,28.20
2022-08-16T05:44:39.906Z,28.20
2022-08-16T05:47:15.342Z,28.20
2022-08-16T05:49:45.890Z,28.20
2022-08-16T05:52:21.075Z,28.10
2022-08-16T05:55:01.536Z,28.10
2022-08-16T05:57:35.479Z,28.10
2022-08-16T06:00:09.335Z,28.10
2022-08-16T06:02:41.384Z,28.10
2022-08-16T06:05:41.610Z,28.10
2022-08-16T06:08:32.473Z,28.20
2022-08-16T06:11:11.161Z,28.20
2022-08-16T06:13:43.378Z,28.20
2022-08-16T06:16:18.111Z,28.20
2022-08-16T06:18:47.132Z,28.20
2022-08-16T06:21:23.971Z,28.20
2022-08-16T06:24:01.156Z,28.20
2022-08-16T06:26:37.030Z,28.20
2022-08-16T06:29:08.225Z,28.20
2022-08-16T06:31:46.848Z,28.20
2022-08-16T06:34:54.926Z,28.20
2022-08-16T06:37:11.050Z,28.20
2022-08-16T06:39:49.176Z,28.30
2022-08-16T06:42:47.020Z,28.30
2022-08-16T06:45:44.982Z,28.30
2022-08-16T06:48:21.275Z,28.30
2022-08-16T06:51:04.748Z,28.30
2022-08-16T06:53:35.445Z,28.30
2022-08-16T06:56:14.633Z,28.30
2022-08-16T06:59:12.270Z,28.30
2022-08-16T07:01:53.552Z,28.30
2022-08-16T07:04:32.396Z,28.30
2022-08-16T07:07:09.527Z,28.30
2022-08-16T07:09:38.843Z,28.30
2022-08-16T07:12:09.844Z,28.30
2022-08-16T07:14:42.734Z,28.30
2022-08-16T07:17:15.598Z,28.30
2022-08-16T07:20:30.227Z,28.30
2022-08-16T07:22:53.034Z,28.30
2022-08-16T07:25:42.914Z,28.40
2022-08-16T07:28:20.720Z,28.40
2022-08-16T07:30:50.027Z,28.40
2022-08-16T07:33:51.459Z,28.40
2022-08-16T07:36:24.410Z,28.50
2022-08-16T07:38:53.622Z,28.50
2022-08-16T07:41:23.309Z,28.50
2022-08-16T07:43:57.594Z,28.50
2022-08-16T07:46:38.752Z,28.50
2022-08-16T07:49:32.457Z,28.60
2022-08-16T07:52:03.224Z,28.60
2022-08-16T07:54:49.100Z,28.60
2022-08-16T07:57:21.686Z,28.60
2022-08-16T07:59:57.108Z,28.60
2022-08-16T08:02:27.374Z,28.60
2022-08-16T08:04:58.275Z,28.70
2022-08-16T08:07:29.221Z,28.70
2022-08-16T08:10:04.814Z,28.70
2022-08-16T08:12:47.596Z,28.70
2022-08-16T08:15:25.356Z,28.70
2022-08-16T08:17:54.555Z,28.70
2022-08-16T08:20:29.559Z,28.80
2022-08-16T08:23:02.743Z,28.80
2022-08-16T08:25:53.932Z,28.80
2022-08-16T08:28:27.243Z,28.80
2022-08-16T08:31:08.830Z,28.80
2022-08-16T08:33:43.803Z,28.90
2022-08-16T08:36:22.445Z,28.90
2022-08-16T08:38:56.410Z,28.90
2022-08-16T08:41:29.338Z,28.90
2022-08-16T08:44:00.874Z,28.90
2022-08-16T08:47:00.086Z,28.90
2022-08-16T08:49:46.244Z,29.00
2022-08-16T08:52:35.426Z,29.00
2022-08-16T08:55:11.483Z,29.00
2022-08-16T08:57:45.269Z,29.00
2022-08-16T09:00:34.575Z,29.00
2022-08-16T09:03:21.480Z,29.00
2022-08-16T09:05:51.825Z,29.10
2022-08-16T09:08:22.128Z,29.10
2022-08-16T09:11:02.978Z,29.10
2022-08-16T09:13:34.081Z,29.10
2022-08-16T09:16:06.822Z,29.10
2022-08-16T09:18:42.507Z,29.10
2022-08-16T09:21:11.504Z,29.10
2022-08-16T09:23:41.348Z,29.10
2022-08-16T09:26:44.183Z,29.10
2022-08-16T09:29:14.985Z,29.10
2022-08-16T09:31:47.278Z,29.20
2022-08-16T09:34:23.009Z,29.20
2022-08-16T09:36:54.584Z,29.20
2022-08-16T09:39:23.030Z,29.20
2022-08-16T09:41:54.175Z,29.20
2022-08-16T09:45:12.989Z,29.20
2022-08-16T09:47:12.304Z,29.30
2022-08-16T09:49:42.243Z,29.30
2022-08-16T09:52:11.463Z,29.30
2022-08-16T09:54:44.290Z,29.30
2022-08-16T09:57:13.434Z,29.30
2022-08-16T09:59:42.342Z,29.40
2022-08-16T10:02:26.566Z,29.40
2022-08-16T10:04:58.288Z,29.40
2022-08-16T10:07:38.379Z,29.40
2022-08-16T10:10:13.244Z,29.40
2022-08-16T10:13:05.034Z,29.40
2022-08-16T10:15:34.413Z,29.40
2022-08-16T10:18:41.281Z,29.40
2022-08-16T10:21:00.143Z,29.40
2022-08-16T10:23:29.650Z,29.50
2022-08-16T10:27:17.189Z,29.50
2022-08-16T10:28:46.213Z,29.50
2022-08-16T10:31:45.991Z,29.60
2022-08-16T10:34:31.385Z,29.60
2022-08-16T10:36:56.938Z,29.60
2022-08-16T10:39:25.824Z,29.70
2022-08-16T10:41:54.237Z,29.70
2022-08-16T10:44:22.399Z,29.70
2022-08-16T10:46:50.657Z,29.70
2022-08-16T10:49:21.937Z,29.80
2022-08-16T10:52:01.824Z,29.80
2022-08-16T10:57:32.977Z,29.80
2022-08-16T11:00:04.199Z,29.90
2022-08-16T11:02:57.607Z,29.90
2022-08-16T11:05:20.886Z,29.90
2022-08-16T11:08:06.969Z,30.00
2022-08-16T11:19:12.501Z,30.10
2022-08-16T11:24:39.990Z,30.10
2022-08-16T11:27:19.634Z,30.20
2022-08-16T11:29:48.822Z,30.20
2022-08-16T11:32:20.101Z,30.20
2022-08-16T11:35:10.438Z,30.30
2022-08-16T11:40:33.066Z,30.40
2022-08-16T11:43:04.071Z,30.50
2022-08-16T11:45:33.904Z,30.60
2022-08-16T11:48:03.684Z,30.70
2022-08-16T11:50:33.503Z,30.80
2022-08-16T11:53:02.384Z,30.90
2022-08-16T11:55:33.131Z,31.00
2022-08-16T11:58:03.890Z,31.10
2022-08-16T12:00:50.662Z,31.20
2022-08-16T12:03:31.570Z,31.40
2022-08-16T12:06:11.175Z,31.50
2022-08-16T12:08:55.574Z,31.70
2022-08-16T12:11:26.597Z,31.90
2022-08-16T12:13:56.413Z,32.10
2022-08-16T12:16:24.691Z,32.20
2022-08-16T12:18:59.841Z,32.40
2022-08-16T12:21:35.950Z,32.50
2022-08-16T12:24:16.331Z,32.70
2022-08-16T12:26:45.330Z,32.60
2022-08-16T12:29:15.035Z,32.60
2022-08-16T12:32:26.803Z,32.60
2022-08-16T12:34:32.061Z,32.60
2022-08-16T12:37:07.785Z,32.80
2022-08-16T12:39:39.812Z,32.70
2022-08-16T12:42:20.856Z,32.30
2022-08-16T12:44:50.756Z,32.00
2022-08-16T12:47:36.944Z,31.90
2022-08-16T12:50:07.489Z,31.70
2022-08-16T12:52:52.148Z,31.60
2022-08-16T12:55:22.028Z,31.50
2022-08-16T12:57:58.431Z,31.50
2022-08-16T13:00:33.465Z,31.60
2022-08-16T13:03:04.243Z,31.80
2022-08-16T13:05:45.018Z,31.90
2022-08-16T13:08:22.426Z,31.80
2022-08-16T13:10:55.829Z,31.80
2022-08-16T13:13:25.837Z,31.80
2022-08-16T13:16:03.683Z,31.90
2022-08-16T13:18:36.264Z,31.90
2022-08-16T13:21:10.471Z,32.00
2022-08-16T13:23:43.329Z,32.00
2022-08-16T13:26:12.766Z,32.00
2022-08-16T13:28:46.237Z,32.10
2022-08-16T13:31:17.636Z,32.10
2022-08-16T13:33:46.345Z,32.00
2022-08-16T13:36:38.796Z,31.90
2022-08-16T13:39:03.637Z,31.80
2022-08-16T13:41:33.243Z,31.90
2022-08-16T13:44:04.246Z,31.80
2022-08-16T13:46:38.942Z,31.70
2022-08-16T13:49:07.158Z,31.70
2022-08-16T13:51:35.535Z,31.70
2022-08-16T13:54:07.722Z,31.80
2022-08-16T13:56:40.003Z,31.70
2022-08-16T13:59:14.017Z,31.70
2022-08-16T14:01:55.793Z,31.70
2022-08-16T14:04:27.302Z,31.70
2022-08-16T14:06:57.090Z,31.60
2022-08-16T14:09:27.189Z,31.40
2022-08-16T14:11:56.718Z,31.40
2022-08-16T14:14:28.578Z,31.30
2022-08-16T14:16:59.242Z,31.20
2022-08-16T14:19:29.607Z,31.20
2022-08-16T14:22:14.572Z,31.20
2022-08-16T14:24:50.706Z,31.20
2022-08-16T14:27:21.296Z,31.20
2022-08-16T14:29:51.585Z,31.20
2022-08-16T14:32:32.814Z,31.30
2022-08-16T14:35:03.693Z,31.30
2022-08-16T14:37:32.668Z,31.30
2022-08-16T14:40:01.179Z,31.30
2022-08-16T14:42:31.715Z,31.30
2022-08-16T14:45:00.674Z,31.30
2022-08-16T14:47:34.105Z,31.40
2022-08-16T14:50:05.760Z,31.30
2022-08-16T14:55:22.971Z,31.30
2022-08-16T14:57:54.372Z,31.30
2022-08-16T15:00:32.747Z,31.30
2022-08-16T15:03:05.687Z,31.30
2022-08-16T15:05:34.381Z,31.40
2022-08-16T15:08:04.055Z,31.40
2022-08-16T15:10:33.073Z,31.50
2022-08-16T15:13:01.497Z,31.50
2022-08-16T15:15:30.829Z,31.60
2022-08-16T15:18:01.793Z,31.50
2022-08-16T15:20:35.171Z,31.50
2022-08-16T15:23:07.324Z,31.60
2022-08-16T15:25:41.270Z,31.60
2022-08-16T15:28:23.951Z,31.60
2022-08-16T15:31:03.147Z,31.60
2022-08-16T15:33:32.747Z,31.50
2022-08-16T15:36:05.702Z,31.50
2022-08-16T15:39:02.271Z,31.50
2022-08-16T15:41:53.803Z,31.60
2022-08-16T15:44:25.117Z,31.60
2022-08-16T15:46:56.745Z,31.60
2022-08-16T15:49:37.532Z,31.60
2022-08-16T15:52:20.462Z,31.70
2022-08-16T15:54:53.079Z,31.70
2022-08-16T15:57:22.932Z,31.70
2022-08-16T15:59:52.457Z,31.70
2022-08-16T16:02:29.150Z,31.70
2022-08-16T16:05:02.405Z,31.70
2022-08-16T16:07:34.952Z,31.60
2022-08-16T16:10:13.153Z,31.60
2022-08-16T16:12:50.906Z,31.60
2022-08-16T16:15:25.263Z,31.60
2022-08-16T16:17:54.361Z,31.60
2022-08-16T16:20:27.242Z,31.60
2022-08-16T16:22:58.073Z,31.60
2022-08-16T16:25:29.836Z,31.60
2022-08-16T16:28:00.232Z,31.60
2022-08-16T16:30:42.957Z,31.60
2022-08-16T16:33:21.025Z,31.60
2022-08-16T16:35:55.479Z,31.50
2022-08-16T16:38:30.685Z,31.50
2022-08-16T16:40:59.966Z,31.50
2022-08-16T16:43:31.820Z,31.40
2022-08-16T16:46:05.860Z,31.40
2022-08-16T16:48:53.058Z,31.40
2022-08-16T16:51:22.512Z,31.40
2022-08-16T16:53:55.801Z,31.40
2022-08-16T16:56:31.413Z,31.40
2022-08-16T16:59:02.132Z,31.40
2022-08-16T17:01:41.435Z,31.30
2022-08-16T17:04:27.490Z,31.30
2022-08-16T17:07:02.516Z,31.30
2022-08-16T17:09:32.201Z,31.30
2022-08-16T17:12:00.497Z,31.30
2022-08-16T17:14:33.765Z,31.30
2022-08-16T17:17:06.863Z,31.30
2022-08-16T17:19:40.724Z,31.30
2022-08-16T17:22:14.687Z,31.30
2022-08-16T17:24:50.874Z,31.30
2022-08-16T17:27:33.690Z,31.30
2022-08-16T17:30:15.587Z,31.30
2022-08-16T17:32:48.442Z,31.20
2022-08-16T17:35:23.084Z,31.20
2022-08-16T17:37:53.547Z,31.20
2022-08-16T17:40:46.110Z,31.20
2022-08-16T17:43:19.119Z,31.10
2022-08-16T17:45:48.226Z,31.10
2022-08-16T17:48:16.608Z,31.10
2022-08-16T17:50:45.439Z,31.00
2022-08-16T17:53:14.996Z,31.00
2022-08-16T17:55:47.760Z,30.90
2022-08-16T17:58:23.107Z,30.90
2022-08-16T18:00:54.245Z,30.90
2022-08-16T18:04:02.865Z,30.90
2022-08-16T18:06:18.448Z,30.80
2022-08-16T18:08:48.903Z,30.80
2022-08-16T18:11:26.023Z,30.80
2022-08-16T18:13:55.571Z,30.80
2022-08-16T18:16:24.159Z,30.70
2022-08-16T18:18:52.399Z,30.70
2022-08-16T18:21:38.213Z,30.70
2022-08-16T18:24:06.686Z,30.70
2022-08-16T18:26:36.953Z,30.70
2022-08-16T18:29:06.214Z,30.70
2022-08-16T18:31:34.582Z,30.70
2022-08-16T18:34:02.795Z,30.70
2022-08-16T18:36:30.989Z,30.70
2022-08-16T18:38:59.618Z,30.80
2022-08-16T18:41:29.016Z,30.80
2022-08-16T18:44:26.445Z,30.80
2022-08-16T18:46:50.758Z,30.80
2022-08-16T18:49:19.460Z,30.80
2022-08-16T18:51:48.027Z,30.80
2022-08-16T18:54:28.514Z,30.70
2022-08-16T18:56:58.205Z,30.80
2022-08-16T18:59:31.080Z,30.80
2022-08-16T19:02:05.196Z,30.80
2022-08-16T19:04:47.695Z,30.90
2022-08-16T19:07:31.179Z,31.00
2022-08-16T19:10:01.267Z,31.00
2022-08-16T19:12:38.642Z,31.00
2022-08-16T19:15:14.360Z,31.00
2022-08-16T19:17:44.545Z,31.00
2022-08-16T19:20:15.150Z,31.00
2022-08-16T19:25:47.539Z,30.90
2022-08-16T19:28:51.774Z,30.90
2022-08-16T19:31:12.948Z,30.80
2022-08-16T19:33:53.130Z,30.80
2022-08-16T19:36:31.570Z,30.80
2022-08-16T19:39:04.668Z,30.70
2022-08-16T19:41:35.120Z,30.70
2022-08-16T19:44:04.322Z,30.70
2022-08-16T19:46:34.570Z,30.70
2022-08-16T19:49:03.016Z,30.70
2022-08-16T19:51:31.310Z,30.70
2022-08-16T19:53:59.467Z,30.70
2022-08-16T19:56:27.689Z,30.60
2022-08-16T20:01:46.223Z,30.50
2022-08-16T20:04:14.792Z,30.50
2022-08-16T20:06:43.346Z,30.40
2022-08-16T20:09:15.138Z,30.40
2022-08-16T20:11:45.016Z,30.40
2022-08-16T20:14:19.398Z,30.40
2022-08-16T20:16:57.130Z,30.40
2022-08-16T20:19:27.317Z,30.30
2022-08-16T20:21:56.534Z,30.30
2022-08-16T20:24:35.217Z,30.30
2022-08-16T20:27:07.338Z,30.30
2022-08-16T20:29:36.448Z,30.30
2022-08-16T20:32:07.426Z,30.30
2022-08-16T20:34:36.157Z,30.30
2022-08-16T20:37:06.052Z,30.20
2022-08-16T20:39:38.722Z,30.20
2022-08-16T20:42:07.218Z,30.20
2022-08-16T20:44:35.343Z,30.20
2022-08-16T20:47:04.927Z,30.20
2022-08-16T20:49:33.128Z,30.10
2022-08-16T20:52:02.613Z,30.10
2022-08-16T20:54:31.034Z,30.10
2022-08-16T20:56:59.196Z,30.10
2022-08-16T20:59:27.793Z,30.10
2022-08-16T21:01:57.148Z,30.10
2022-08-16T21:04:29.749Z,30.10
2022-08-16T21:06:59.224Z,30.10
2022-08-16T21:09:31.466Z,30.10
2022-08-16T21:12:01.910Z,30.10
2022-08-16T21:14:33.954Z,30.10
2022-08-16T21:17:02.560Z,30.10
2022-08-16T21:19:34.216Z,30.10
2022-08-16T21:22:12.785Z,30.10
2022-08-16T21:24:41.884Z,30.10
2022-08-16T21:27:10.959Z,30.10
2022-08-16T21:29:43.062Z,30.10
2022-08-16T21:32:15.084Z,30.10
2022-08-16T21:34:46.807Z,30.00
2022-08-16T21:37:15.614Z,30.00
2022-08-16T21:39:44.941Z,30.00
2022-08-16T21:42:15.245Z,30.00
2022-08-16T21:44:44.093Z,30.00
2022-08-16T21:47:12.336Z,30.00
2022-08-16T21:49:40.646Z,30.00
2022-08-16T21:52:26.820Z,30.00
2022-08-16T21:54:57.320Z,30.00
2022-08-16T21:57:25.680Z,30.00
2022-08-16T21:59:55.304Z,30.00
2022-08-16T22:02:27.887Z,30.00
2022-08-16T22:05:05.315Z,30.00
2022-08-16T22:07:34.942Z,30.00
2022-08-16T22:11:05.054Z,29.90
2022-08-16T22:12:52.095Z,29.90
2022-08-16T22:15:25.607Z,30.00
2022-08-16T22:17:55.981Z,29.90
2022-08-16T22:20:25.237Z,29.90
2022-08-16T22:23:06.027Z,29.90
2022-08-16T22:25:34.243Z,29.90
2022-08-16T22:28:02.610Z,29.90
2022-08-16T22:30:30.979Z,29.90
2022-08-16T22:32:59.943Z,29.90
2022-08-16T22:35:28.362Z,29.90
2022-08-16T22:38:52.914Z,29.90
2022-08-16T22:40:49.478Z,29.80
2022-08-16T22:43:18.841Z,29.80
2022-08-16T22:45:47.248Z,29.80
2022-08-16T22:48:17.115Z,29.80
2022-08-16T22:50:45.355Z,29.80
2022-08-16T22:53:16.235Z,29.80
2022-08-16T22:55:44.607Z,29.80
2022-08-16T22:58:13.836Z,29.80
2022-08-16T23:00:43.833Z,29.80
2022-08-16T23:03:13.953Z,29.80
2022-08-16T23:05:44.320Z,29.80
2022-08-16T23:08:15.783Z,29.80
2022-08-16T23:11:00.903Z,29.70
2022-08-16T23:13:29.318Z,29.70
2022-08-16T23:16:10.773Z,29.70
2022-08-16T23:18:40.527Z,29.70
2022-08-16T23:21:10.372Z,29.80
2022-08-16T23:23:40.272Z,29.70
2022-08-16T23:26:45.036Z,29.70
2022-08-16T23:28:58.101Z,29.70
2022-08-16T23:31:26.360Z,29.70
2022-08-16T23:33:54.496Z,29.70
2022-08-16T23:36:22.671Z,29.70
2022-08-16T23:38:52.221Z,29.70
2022-08-16T23:41:20.459Z,29.60
2022-08-16T23:43:48.612Z,29.60
2022-08-16T23:46:19.496Z,29.60
2022-08-16T23:49:56.550Z,29.60
2022-08-16T23:51:36.047Z,29.60
2022-08-16T23:54:08.335Z,29.60
2022-08-16T23:56:40.437Z,29.60
2022-08-16T23:59:09.324Z,29.60
